sensor_id;sensor_type;location;lat;lon;timestamp;P1;durP1;ratioP1;P2;durP2;ratioP2
17686;SDS011;8962;52.538;13.266;2022-09-14T00:00:48;7.95;;;2.28;;
17686;SDS011;8962;52.538;13.266;2022-09-14T00:03:15;9.07;;;2.40;;
17686;SDS011;8962;52.538;13.266;2022-09-14T00:05:44;7.13;;;2.10;;
17686;SDS011;8962;52.538;13.266;2022-09-14T00:08:12;11.80;;;2.78;;
17686;SDS011;8962;52.538;13.266;2022-09-14T00:10:41;9.70;;;2.67;;
17686;SDS011;8962;52.538;13.266;2022-09-14T00:13:09;7.35;;;2.22;;
17686;SDS011;8962;52.538;13.266;2022-09-14T00:15:37;11.55;;;2.50;;
17686;SDS011;8962;52.538;13.266;2022-09-14T00:18:06;16.08;;;2.60;;
17686;SDS011;8962;52.538;13.266;2022-09-14T00:20:35;8.30;;;2.00;;
17686;SDS011;8962;52.538;13.266;2022-09-14T00:23:04;9.68;;;2.63;;
17686;SDS011;8962;52.538;13.266;2022-09-14T00:25:32;9.38;;;2.78;;
17686;SDS011;8962;52.538;13.266;2022-09-14T00:27:58;9.88;;;2.38;;
17686;SDS011;8962;52.538;13.266;2022-09-14T00:30:25;10.10;;;2.63;;
17686;SDS011;8962;52.538;13.266;2022-09-14T00:32:53;7.30;;;2.10;;
17686;SDS011;8962;52.538;13.266;2022-09-14T00:35:20;10.23;;;2.33;;
17686;SDS011;8962;52.538;13.266;2022-09-14T00:37:47;7.90;;;2.45;;
17686;SDS011;8962;52.538;13.266;2022-09-14T00:40:18;8.95;;;2.45;;
17686;SDS011;8962;52.538;13.266;2022-09-14T00:42:45;6.25;;;2.30;;
17686;SDS011;8962;52.538;13.266;2022-09-14T00:45:13;5.68;;;2.03;;
17686;SDS011;8962;52.538;13.266;2022-09-14T00:47:42;8.68;;;2.35;;
17686;SDS011;8962;52.538;13.266;2022-09-14T00:50:10;6.47;;;2.50;;
17686;SDS011;8962;52.538;13.266;2022-09-14T00:52:37;9.43;;;2.30;;
17686;SDS011;8962;52.538;13.266;2022-09-14T00:55:08;8.60;;;2.53;;
17686;SDS011;8962;52.538;13.266;2022-09-14T00:57:39;8.95;;;2.30;;
17686;SDS011;8962;52.538;13.266;2022-09-14T01:00:09;5.88;;;2.15;;
17686;SDS011;8962;52.538;13.266;2022-09-14T01:02:40;13.85;;;3.05;;
17686;SDS011;8962;52.538;13.266;2022-09-14T01:05:08;6.78;;;2.20;;
17686;SDS011;8962;52.538;13.266;2022-09-14T01:10:46;8.93;;;2.72;;
17686;SDS011;8962;52.538;13.266;2022-09-14T01:13:30;15.85;;;2.95;;
17686;SDS011;8962;52.538;13.266;2022-09-14T01:16:02;11.07;;;2.97;;
17686;SDS011;8962;52.538;13.266;2022-09-14T01:18:37;9.35;;;2.75;;
17686;SDS011;8962;52.538;13.266;2022-09-14T01:21:10;10.32;;;2.50;;
17686;SDS011;8962;52.538;13.266;2022-09-14T01:23:41;13.10;;;2.80;;
17686;SDS011;8962;52.538;13.266;2022-09-14T01:26:23;8.88;;;2.35;;
17686;SDS011;8962;52.538;13.266;2022-09-14T01:29:04;10.32;;;2.65;;
17686;SDS011;8962;52.538;13.266;2022-09-14T01:31:41;9.32;;;2.53;;
17686;SDS011;8962;52.538;13.266;2022-09-14T01:34:18;10.93;;;3.30;;
17686;SDS011;8962;52.538;13.266;2022-09-14T01:36:52;7.07;;;2.70;;
17686;SDS011;8962;52.538;13.266;2022-09-14T01:39:24;9.25;;;2.67;;
17686;SDS011;8962;52.538;13.266;2022-09-14T01:41:57;9.57;;;2.75;;
17686;SDS011;8962;52.538;13.266;2022-09-14T01:44:29;11.18;;;2.97;;
17686;SDS011;8962;52.538;13.266;2022-09-14T01:47:02;8.15;;;2.42;;
17686;SDS011;8962;52.538;13.266;2022-09-14T01:49:36;12.82;;;2.88;;
17686;SDS011;8962;52.538;13.266;2022-09-14T01:52:08;10.50;;;2.70;;
17686;SDS011;8962;52.538;13.266;2022-09-14T01:54:40;9.55;;;2.70;;
17686;SDS011;8962;52.538;13.266;2022-09-14T01:57:12;10.32;;;2.63;;
17686;SDS011;8962;52.538;13.266;2022-09-14T01:59:45;15.48;;;3.10;;
17686;SDS011;8962;52.538;13.266;2022-09-14T02:02:15;7.97;;;2.50;;
17686;SDS011;8962;52.538;13.266;2022-09-14T02:04:46;8.50;;;3.13;;
17686;SDS011;8962;52.538;13.266;2022-09-14T02:07:17;8.35;;;3.50;;
17686;SDS011;8962;52.538;13.266;2022-09-14T02:09:46;8.23;;;3.08;;
17686;SDS011;8962;52.538;13.266;2022-09-14T02:12:15;8.93;;;2.90;;
17686;SDS011;8962;52.538;13.266;2022-09-14T02:14:44;11.05;;;3.20;;
17686;SDS011;8962;52.538;13.266;2022-09-14T02:17:12;10.25;;;2.90;;
17686;SDS011;8962;52.538;13.266;2022-09-14T02:19:41;7.88;;;3.22;;
17686;SDS011;8962;52.538;13.266;2022-09-14T02:22:12;12.40;;;2.80;;
17686;SDS011;8962;52.538;13.266;2022-09-14T02:24:39;8.27;;;3.08;;
17686;SDS011;8962;52.538;13.266;2022-09-14T02:27:07;15.75;;;3.20;;
17686;SDS011;8962;52.538;13.266;2022-09-14T02:29:34;7.90;;;2.83;;
17686;SDS011;8962;52.538;13.266;2022-09-14T02:32:07;16.33;;;3.67;;
17686;SDS011;8962;52.538;13.266;2022-09-14T02:34:45;8.32;;;2.65;;
17686;SDS011;8962;52.538;13.266;2022-09-14T02:37:22;9.23;;;2.95;;
17686;SDS011;8962;52.538;13.266;2022-09-14T02:39:56;12.15;;;3.03;;
17686;SDS011;8962;52.538;13.266;2022-09-14T02:42:49;10.20;;;2.92;;
17686;SDS011;8962;52.538;13.266;2022-09-14T02:45:23;6.68;;;2.70;;
17686;SDS011;8962;52.538;13.266;2022-09-14T02:48:00;10.93;;;3.28;;
17686;SDS011;8962;52.538;13.266;2022-09-14T02:50:33;10.23;;;3.15;;
17686;SDS011;8962;52.538;13.266;2022-09-14T02:53:07;10.20;;;3.35;;
17686;SDS011;8962;52.538;13.266;2022-09-14T02:55:39;7.85;;;2.60;;
17686;SDS011;8962;52.538;13.266;2022-09-14T02:58:09;13.27;;;2.83;;
17686;SDS011;8962;52.538;13.266;2022-09-14T03:00:39;10.55;;;2.80;;
17686;SDS011;8962;52.538;13.266;2022-09-14T03:03:11;8.63;;;3.00;;
17686;SDS011;8962;52.538;13.266;2022-09-14T03:05:42;12.15;;;3.38;;
17686;SDS011;8962;52.538;13.266;2022-09-14T03:08:09;12.82;;;3.95;;
17686;SDS011;8962;52.538;13.266;2022-09-14T03:10:37;12.43;;;3.50;;
17686;SDS011;8962;52.538;13.266;2022-09-14T03:13:07;11.80;;;3.40;;
17686;SDS011;8962;52.538;13.266;2022-09-14T03:15:35;9.15;;;3.20;;
17686;SDS011;8962;52.538;13.266;2022-09-14T03:18:02;10.02;;;3.42;;
17686;SDS011;8962;52.538;13.266;2022-09-14T03:20:32;10.88;;;3.33;;
17686;SDS011;8962;52.538;13.266;2022-09-14T03:23:00;10.77;;;3.47;;
17686;SDS011;8962;52.538;13.266;2022-09-14T03:25:29;15.85;;;4.93;;
17686;SDS011;8962;52.538;13.266;2022-09-14T03:28:10;14.13;;;4.30;;
17686;SDS011;8962;52.538;13.266;2022-09-14T03:30:38;9.68;;;3.20;;
17686;SDS011;8962;52.538;13.266;2022-09-14T03:33:06;8.32;;;3.42;;
17686;SDS011;8962;52.538;13.266;2022-09-14T03:35:38;11.75;;;3.38;;
17686;SDS011;8962;52.538;13.266;2022-09-14T03:38:05;16.02;;;3.67;;
17686;SDS011;8962;52.538;13.266;2022-09-14T03:40:32;8.63;;;3.55;;
17686;SDS011;8962;52.538;13.266;2022-09-14T03:43:00;8.05;;;3.30;;
17686;SDS011;8962;52.538;13.266;2022-09-14T03:45:27;10.77;;;3.47;;
17686;SDS011;8962;52.538;13.266;2022-09-14T03:47:54;7.97;;;3.30;;
17686;SDS011;8962;52.538;13.266;2022-09-14T03:50:22;9.85;;;3.70;;
17686;SDS011;8962;52.538;13.266;2022-09-14T03:52:50;11.65;;;3.63;;
17686;SDS011;8962;52.538;13.266;2022-09-14T03:55:18;11.85;;;4.00;;
17686;SDS011;8962;52.538;13.266;2022-09-14T03:57:52;9.98;;;3.38;;
17686;SDS011;8962;52.538;13.266;2022-09-14T04:00:19;9.88;;;3.40;;
17686;SDS011;8962;52.538;13.266;2022-09-14T04:02:46;13.32;;;3.53;;
17686;SDS011;8962;52.538;13.266;2022-09-14T04:05:13;10.13;;;3.90;;
17686;SDS011;8962;52.538;13.266;2022-09-14T04:07:41;7.53;;;3.58;;
17686;SDS011;8962;52.538;13.266;2022-09-14T04:10:09;9.15;;;3.60;;
17686;SDS011;8962;52.538;13.266;2022-09-14T04:12:36;10.60;;;3.58;;
17686;SDS011;8962;52.538;13.266;2022-09-14T04:15:07;9.40;;;3.50;;
17686;SDS011;8962;52.538;13.266;2022-09-14T04:17:34;7.78;;;3.55;;
17686;SDS011;8962;52.538;13.266;2022-09-14T04:20:02;8.50;;;3.70;;
17686;SDS011;8962;52.538;13.266;2022-09-14T04:22:30;10.35;;;3.60;;
17686;SDS011;8962;52.538;13.266;2022-09-14T04:24:57;9.75;;;3.92;;
17686;SDS011;8962;52.538;13.266;2022-09-14T04:27:25;8.07;;;3.65;;
17686;SDS011;8962;52.538;13.266;2022-09-14T04:29:55;11.00;;;4.18;;
17686;SDS011;8962;52.538;13.266;2022-09-14T04:32:22;12.20;;;5.15;;
17686;SDS011;8962;52.538;13.266;2022-09-14T04:34:50;10.13;;;4.95;;
17686;SDS011;8962;52.538;13.266;2022-09-14T04:37:18;12.43;;;4.93;;
17686;SDS011;8962;52.538;13.266;2022-09-14T04:39:45;9.77;;;4.53;;
17686;SDS011;8962;52.538;13.266;2022-09-14T04:42:12;18.80;;;5.63;;
17686;SDS011;8962;52.538;13.266;2022-09-14T04:44:41;15.27;;;5.38;;
17686;SDS011;8962;52.538;13.266;2022-09-14T04:47:09;12.07;;;5.00;;
17686;SDS011;8962;52.538;13.266;2022-09-14T04:49:37;9.52;;;4.13;;
17686;SDS011;8962;52.538;13.266;2022-09-14T04:52:04;9.40;;;4.10;;
17686;SDS011;8962;52.538;13.266;2022-09-14T04:54:32;11.63;;;3.53;;
17686;SDS011;8962;52.538;13.266;2022-09-14T04:56:59;7.50;;;4.00;;
17686;SDS011;8962;52.538;13.266;2022-09-14T04:59:26;10.13;;;4.65;;
17686;SDS011;8962;52.538;13.266;2022-09-14T05:01:58;7.35;;;4.00;;
17686;SDS011;8962;52.538;13.266;2022-09-14T05:04:26;11.60;;;4.18;;
17686;SDS011;8962;52.538;13.266;2022-09-14T05:06:54;12.60;;;4.03;;
17686;SDS011;8962;52.538;13.266;2022-09-14T05:09:21;10.30;;;3.90;;
17686;SDS011;8962;52.538;13.266;2022-09-14T05:11:48;12.40;;;4.50;;
17686;SDS011;8962;52.538;13.266;2022-09-14T05:14:17;16.92;;;3.75;;
17686;SDS011;8962;52.538;13.266;2022-09-14T05:16:44;14.90;;;4.13;;
17686;SDS011;8962;52.538;13.266;2022-09-14T05:19:14;10.98;;;3.92;;
17686;SDS011;8962;52.538;13.266;2022-09-14T05:21:43;11.65;;;4.10;;
17686;SDS011;8962;52.538;13.266;2022-09-14T05:24:11;13.68;;;4.20;;
17686;SDS011;8962;52.538;13.266;2022-09-14T05:26:39;10.35;;;4.50;;
17686;SDS011;8962;52.538;13.266;2022-09-14T05:29:09;11.82;;;4.35;;
17686;SDS011;8962;52.538;13.266;2022-09-14T05:31:37;15.88;;;4.30;;
17686;SDS011;8962;52.538;13.266;2022-09-14T05:34:04;13.25;;;4.05;;
17686;SDS011;8962;52.538;13.266;2022-09-14T05:36:34;12.02;;;4.22;;
17686;SDS011;8962;52.538;13.266;2022-09-14T05:39:01;11.10;;;4.50;;
17686;SDS011;8962;52.538;13.266;2022-09-14T05:41:29;13.75;;;5.18;;
17686;SDS011;8962;52.538;13.266;2022-09-14T05:43:57;12.23;;;4.57;;
17686;SDS011;8962;52.538;13.266;2022-09-14T05:46:24;14.80;;;4.63;;
17686;SDS011;8962;52.538;13.266;2022-09-14T05:48:51;17.85;;;4.43;;
17686;SDS011;8962;52.538;13.266;2022-09-14T05:51:19;9.80;;;4.20;;
17686;SDS011;8962;52.538;13.266;2022-09-14T05:53:50;12.73;;;3.95;;
17686;SDS011;8962;52.538;13.266;2022-09-14T05:56:21;9.60;;;3.90;;
17686;SDS011;8962;52.538;13.266;2022-09-14T05:58:51;15.00;;;4.13;;
17686;SDS011;8962;52.538;13.266;2022-09-14T06:01:20;9.82;;;3.78;;
17686;SDS011;8962;52.538;13.266;2022-09-14T06:03:49;10.52;;;4.00;;
17686;SDS011;8962;52.538;13.266;2022-09-14T06:06:20;9.27;;;3.70;;
17686;SDS011;8962;52.538;13.266;2022-09-14T06:08:51;13.52;;;4.40;;
17686;SDS011;8962;52.538;13.266;2022-09-14T06:11:21;9.10;;;3.75;;
17686;SDS011;8962;52.538;13.266;2022-09-14T06:13:50;12.77;;;4.10;;
17686;SDS011;8962;52.538;13.266;2022-09-14T06:16:21;6.45;;;3.30;;
17686;SDS011;8962;52.538;13.266;2022-09-14T06:18:49;11.15;;;4.13;;
17686;SDS011;8962;52.538;13.266;2022-09-14T06:21:17;8.93;;;4.05;;
17686;SDS011;8962;52.538;13.266;2022-09-14T06:23:46;11.23;;;4.15;;
17686;SDS011;8962;52.538;13.266;2022-09-14T06:26:15;14.45;;;3.33;;
17686;SDS011;8962;52.538;13.266;2022-09-14T06:28:43;16.15;;;4.20;;
17686;SDS011;8962;52.538;13.266;2022-09-14T06:31:10;9.65;;;3.97;;
17686;SDS011;8962;52.538;13.266;2022-09-14T06:33:41;11.77;;;3.83;;
17686;SDS011;8962;52.538;13.266;2022-09-14T06:36:10;9.77;;;3.88;;
17686;SDS011;8962;52.538;13.266;2022-09-14T06:38:38;17.35;;;4.40;;
17686;SDS011;8962;52.538;13.266;2022-09-14T06:41:07;11.85;;;4.35;;
17686;SDS011;8962;52.538;13.266;2022-09-14T06:43:38;11.85;;;4.32;;
17686;SDS011;8962;52.538;13.266;2022-09-14T06:46:08;10.63;;;3.83;;
17686;SDS011;8962;52.538;13.266;2022-09-14T06:48:39;11.80;;;3.50;;
17686;SDS011;8962;52.538;13.266;2022-09-14T06:51:13;12.80;;;2.90;;
17686;SDS011;8962;52.538;13.266;2022-09-14T06:53:44;8.52;;;3.35;;
17686;SDS011;8962;52.538;13.266;2022-09-14T06:56:12;6.70;;;2.67;;
17686;SDS011;8962;52.538;13.266;2022-09-14T06:58:42;15.00;;;2.83;;
17686;SDS011;8962;52.538;13.266;2022-09-14T07:01:09;9.77;;;2.83;;
17686;SDS011;8962;52.538;13.266;2022-09-14T07:03:41;8.88;;;3.45;;
17686;SDS011;8962;52.538;13.266;2022-09-14T07:06:18;14.02;;;3.00;;
17686;SDS011;8962;52.538;13.266;2022-09-14T07:08:46;12.82;;;3.10;;
17686;SDS011;8962;52.538;13.266;2022-09-14T07:11:19;10.98;;;2.95;;
17686;SDS011;8962;52.538;13.266;2022-09-14T07:13:52;9.25;;;2.88;;
17686;SDS011;8962;52.538;13.266;2022-09-14T07:16:21;11.82;;;3.33;;
17686;SDS011;8962;52.538;13.266;2022-09-14T07:18:51;13.30;;;3.10;;
17686;SDS011;8962;52.538;13.266;2022-09-14T07:21:20;12.95;;;3.45;;
17686;SDS011;8962;52.538;13.266;2022-09-14T07:23:49;13.82;;;3.58;;
17686;SDS011;8962;52.538;13.266;2022-09-14T07:26:17;14.70;;;3.70;;
17686;SDS011;8962;52.538;13.266;2022-09-14T07:28:47;9.93;;;3.08;;
17686;SDS011;8962;52.538;13.266;2022-09-14T07:31:18;10.13;;;3.08;;
17686;SDS011;8962;52.538;13.266;2022-09-14T07:33:46;9.95;;;2.97;;
17686;SDS011;8962;52.538;13.266;2022-09-14T07:36:17;7.25;;;2.42;;
17686;SDS011;8962;52.538;13.266;2022-09-14T07:38:46;10.02;;;2.45;;
17686;SDS011;8962;52.538;13.266;2022-09-14T07:41:13;8.60;;;2.47;;
17686;SDS011;8962;52.538;13.266;2022-09-14T07:43:42;8.73;;;2.90;;
17686;SDS011;8962;52.538;13.266;2022-09-14T07:46:09;7.18;;;2.53;;
17686;SDS011;8962;52.538;13.266;2022-09-14T07:48:37;7.50;;;2.42;;
17686;SDS011;8962;52.538;13.266;2022-09-14T07:51:05;13.45;;;3.10;;
17686;SDS011;8962;52.538;13.266;2022-09-14T07:53:34;8.25;;;2.65;;
17686;SDS011;8962;52.538;13.266;2022-09-14T07:56:03;11.30;;;2.33;;
17686;SDS011;8962;52.538;13.266;2022-09-14T07:58:31;10.57;;;2.70;;
17686;SDS011;8962;52.538;13.266;2022-09-14T08:01:03;7.90;;;2.33;;
17686;SDS011;8962;52.538;13.266;2022-09-14T08:03:32;14.15;;;2.70;;
17686;SDS011;8962;52.538;13.266;2022-09-14T08:06:03;11.32;;;2.90;;
17686;SDS011;8962;52.538;13.266;2022-09-14T08:08:32;8.20;;;2.50;;
17686;SDS011;8962;52.538;13.266;2022-09-14T08:11:01;12.85;;;2.95;;
17686;SDS011;8962;52.538;13.266;2022-09-14T08:13:30;10.25;;;2.38;;
17686;SDS011;8962;52.538;13.266;2022-09-14T08:15:57;11.93;;;2.45;;
17686;SDS011;8962;52.538;13.266;2022-09-14T08:18:26;12.43;;;2.40;;
17686;SDS011;8962;52.538;13.266;2022-09-14T08:20:54;11.35;;;2.92;;
17686;SDS011;8962;52.538;13.266;2022-09-14T08:23:25;13.18;;;2.28;;
17686;SDS011;8962;52.538;13.266;2022-09-14T08:25:54;7.25;;;2.03;;
17686;SDS011;8962;52.538;13.266;2022-09-14T08:28:20;9.02;;;2.47;;
17686;SDS011;8962;52.538;13.266;2022-09-14T08:30:47;8.75;;;2.33;;
17686;SDS011;8962;52.538;13.266;2022-09-14T08:33:16;7.78;;;2.53;;
17686;SDS011;8962;52.538;13.266;2022-09-14T08:35:44;10.13;;;2.50;;
17686;SDS011;8962;52.538;13.266;2022-09-14T08:38:11;9.05;;;2.47;;
17686;SDS011;8962;52.538;13.266;2022-09-14T08:40:45;13.40;;;2.50;;
17686;SDS011;8962;52.538;13.266;2022-09-14T08:43:12;8.95;;;2.30;;
17686;SDS011;8962;52.538;13.266;2022-09-14T08:45:40;12.05;;;2.53;;
17686;SDS011;8962;52.538;13.266;2022-09-14T08:48:10;10.15;;;2.83;;
17686;SDS011;8962;52.538;13.266;2022-09-14T08:50:47;14.18;;;2.67;;
17686;SDS011;8962;52.538;13.266;2022-09-14T08:53:19;11.85;;;2.50;;
17686;SDS011;8962;52.538;13.266;2022-09-14T08:55:49;9.65;;;2.40;;
17686;SDS011;8962;52.538;13.266;2022-09-14T08:58:25;10.77;;;2.60;;
17686;SDS011;8962;52.538;13.266;2022-09-14T09:01:01;6.75;;;2.15;;
17686;SDS011;8962;52.538;13.266;2022-09-14T09:03:51;9.82;;;2.50;;
17686;SDS011;8962;52.538;13.266;2022-09-14T09:06:42;9.27;;;2.15;;
17686;SDS011;8962;52.538;13.266;2022-09-14T09:09:16;8.02;;;2.35;;
17686;SDS011;8962;52.538;13.266;2022-09-14T09:11:51;9.07;;;2.65;;
17686;SDS011;8962;52.538;13.266;2022-09-14T09:14:22;12.52;;;2.90;;
17686;SDS011;8962;52.538;13.266;2022-09-14T09:16:56;8.52;;;2.35;;
17686;SDS011;8962;52.538;13.266;2022-09-14T09:19:26;9.52;;;2.83;;
17686;SDS011;8962;52.538;13.266;2022-09-14T09:21:56;10.18;;;2.60;;
17686;SDS011;8962;52.538;13.266;2022-09-14T09:24:26;12.88;;;2.53;;
17686;SDS011;8962;52.538;13.266;2022-09-14T09:26:58;9.18;;;2.55;;
17686;SDS011;8962;52.538;13.266;2022-09-14T09:29:26;12.32;;;2.55;;
17686;SDS011;8962;52.538;13.266;2022-09-14T09:32:09;12.95;;;2.55;;
17686;SDS011;8962;52.538;13.266;2022-09-14T09:34:43;17.83;;;3.10;;
17686;SDS011;8962;52.538;13.266;2022-09-14T09:37:35;9.57;;;2.25;;
17686;SDS011;8962;52.538;13.266;2022-09-14T09:40:07;14.68;;;3.72;;
17686;SDS011;8962;52.538;13.266;2022-09-14T09:45:46;11.73;;;2.80;;
17686;SDS011;8962;52.538;13.266;2022-09-14T09:48:17;11.30;;;2.20;;
17686;SDS011;8962;52.538;13.266;2022-09-14T09:50:49;11.18;;;2.30;;
17686;SDS011;8962;52.538;13.266;2022-09-14T09:53:23;9.75;;;3.10;;
17686;SDS011;8962;52.538;13.266;2022-09-14T09:55:52;9.25;;;2.90;;
17686;SDS011;8962;52.538;13.266;2022-09-14T10:01:08;8.57;;;2.13;;
17686;SDS011;8962;52.538;13.266;2022-09-14T10:03:58;7.70;;;2.08;;
17686;SDS011;8962;52.538;13.266;2022-09-14T10:06:26;9.07;;;2.40;;
17686;SDS011;8962;52.538;13.266;2022-09-14T10:08:54;6.15;;;2.17;;
17686;SDS011;8962;52.538;13.266;2022-09-14T10:11:26;7.35;;;1.90;;
17686;SDS011;8962;52.538;13.266;2022-09-14T10:13:56;7.05;;;2.38;;
17686;SDS011;8962;52.538;13.266;2022-09-14T10:16:24;8.35;;;2.20;;
17686;SDS011;8962;52.538;13.266;2022-09-14T10:18:58;7.68;;;2.53;;
17686;SDS011;8962;52.538;13.266;2022-09-14T10:21:27;7.75;;;1.98;;
17686;SDS011;8962;52.538;13.266;2022-09-14T10:24:03;12.45;;;2.42;;
17686;SDS011;8962;52.538;13.266;2022-09-14T10:26:35;9.15;;;2.40;;
17686;SDS011;8962;52.538;13.266;2022-09-14T10:29:19;7.63;;;1.90;;
17686;SDS011;8962;52.538;13.266;2022-09-14T10:31:57;11.20;;;2.45;;
17686;SDS011;8962;52.538;13.266;2022-09-14T10:34:30;12.70;;;2.90;;
17686;SDS011;8962;52.538;13.266;2022-09-14T10:37:00;10.68;;;2.33;;
17686;SDS011;8962;52.538;13.266;2022-09-14T10:39:38;8.43;;;2.20;;
17686;SDS011;8962;52.538;13.266;2022-09-14T10:42:13;10.95;;;2.70;;
17686;SDS011;8962;52.538;13.266;2022-09-14T10:47:55;9.25;;;2.33;;
17686;SDS011;8962;52.538;13.266;2022-09-14T10:50:34;9.88;;;2.22;;
17686;SDS011;8962;52.538;13.266;2022-09-14T10:53:14;10.38;;;2.00;;
17686;SDS011;8962;52.538;13.266;2022-09-14T10:55:52;8.35;;;2.00;;
17686;SDS011;8962;52.538;13.266;2022-09-14T10:58:33;6.53;;;2.10;;
17686;SDS011;8962;52.538;13.266;2022-09-14T11:01:15;6.63;;;2.10;;
17686;SDS011;8962;52.538;13.266;2022-09-14T11:03:55;6.00;;;2.38;;
17686;SDS011;8962;52.538;13.266;2022-09-14T11:06:42;10.23;;;2.30;;
17686;SDS011;8962;52.538;13.266;2022-09-14T11:09:19;5.88;;;2.10;;
17686;SDS011;8962;52.538;13.266;2022-09-14T11:11:55;6.63;;;1.90;;
17686;SDS011;8962;52.538;13.266;2022-09-14T11:14:44;6.28;;;1.95;;
17686;SDS011;8962;52.538;13.266;2022-09-14T11:17:41;7.55;;;2.42;;
17686;SDS011;8962;52.538;13.266;2022-09-14T11:20:25;5.88;;;1.98;;
17686;SDS011;8962;52.538;13.266;2022-09-14T11:23:02;7.75;;;2.20;;
17686;SDS011;8962;52.538;13.266;2022-09-14T11:25:42;5.78;;;2.10;;
17686;SDS011;8962;52.538;13.266;2022-09-14T11:28:15;10.23;;;2.90;;
17686;SDS011;8962;52.538;13.266;2022-09-14T11:30:50;7.47;;;1.85;;
17686;SDS011;8962;52.538;13.266;2022-09-14T11:33:23;7.07;;;2.42;;
17686;SDS011;8962;52.538;13.266;2022-09-14T11:35:57;6.18;;;2.17;;
17686;SDS011;8962;52.538;13.266;2022-09-14T11:38:28;11.40;;;2.15;;
17686;SDS011;8962;52.538;13.266;2022-09-14T11:41:02;6.63;;;1.80;;
17686;SDS011;8962;52.538;13.266;2022-09-14T11:43:36;7.10;;;2.00;;
17686;SDS011;8962;52.538;13.266;2022-09-14T11:46:11;6.65;;;2.00;;
17686;SDS011;8962;52.538;13.266;2022-09-14T11:48:46;8.27;;;1.90;;
17686;SDS011;8962;52.538;13.266;2022-09-14T11:51:21;9.35;;;2.45;;
17686;SDS011;8962;52.538;13.266;2022-09-14T11:53:51;9.45;;;2.13;;
17686;SDS011;8962;52.538;13.266;2022-09-14T11:56:23;7.60;;;2.30;;
17686;SDS011;8962;52.538;13.266;2022-09-14T11:58:52;8.65;;;2.00;;
17686;SDS011;8962;52.538;13.266;2022-09-14T12:01:28;5.40;;;2.10;;
17686;SDS011;8962;52.538;13.266;2022-09-14T12:04:07;8.93;;;2.00;;
17686;SDS011;8962;52.538;13.266;2022-09-14T12:06:47;10.50;;;2.08;;
17686;SDS011;8962;52.538;13.266;2022-09-14T12:09:36;6.70;;;2.30;;
17686;SDS011;8962;52.538;13.266;2022-09-14T12:15:00;8.15;;;2.20;;
17686;SDS011;8962;52.538;13.266;2022-09-14T12:17:32;7.32;;;2.05;;
17686;SDS011;8962;52.538;13.266;2022-09-14T12:20:24;7.07;;;2.33;;
17686;SDS011;8962;52.538;13.266;2022-09-14T12:31:58;7.38;;;2.22;;
17686;SDS011;8962;52.538;13.266;2022-09-14T12:34:30;8.25;;;1.73;;
17686;SDS011;8962;52.538;13.266;2022-09-14T12:52:11;6.72;;;2.42;;
17686;SDS011;8962;52.538;13.266;2022-09-14T12:54:54;7.63;;;2.10;;
17686;SDS011;8962;52.538;13.266;2022-09-14T12:57:29;7.43;;;2.00;;
17686;SDS011;8962;52.538;13.266;2022-09-14T13:00:08;15.68;;;4.32;;
17686;SDS011;8962;52.538;13.266;2022-09-14T13:05:35;10.02;;;2.70;;
17686;SDS011;8962;52.538;13.266;2022-09-14T13:08:06;10.07;;;3.08;;
17686;SDS011;8962;52.538;13.266;2022-09-14T13:10:37;5.47;;;2.20;;
17686;SDS011;8962;52.538;13.266;2022-09-14T13:13:13;7.25;;;2.15;;
17686;SDS011;8962;52.538;13.266;2022-09-14T13:15:45;7.53;;;2.22;;
17686;SDS011;8962;52.538;13.266;2022-09-14T13:21:01;13.25;;;4.82;;
17686;SDS011;8962;52.538;13.266;2022-09-14T13:23:41;10.57;;;3.40;;
17686;SDS011;8962;52.538;13.266;2022-09-14T13:26:10;11.98;;;4.65;;
17686;SDS011;8962;52.538;13.266;2022-09-14T13:28:41;8.40;;;2.13;;
17686;SDS011;8962;52.538;13.266;2022-09-14T13:31:11;7.78;;;2.35;;
17686;SDS011;8962;52.538;13.266;2022-09-14T13:33:45;9.75;;;2.30;;
17686;SDS011;8962;52.538;13.266;2022-09-14T13:36:16;8.68;;;2.25;;
17686;SDS011;8962;52.538;13.266;2022-09-14T13:38:44;5.47;;;2.03;;
17686;SDS011;8962;52.538;13.266;2022-09-14T13:41:13;8.15;;;2.33;;
17686;SDS011;8962;52.538;13.266;2022-09-14T13:43:42;8.93;;;2.30;;
17686;SDS011;8962;52.538;13.266;2022-09-14T13:46:14;9.52;;;2.55;;
17686;SDS011;8962;52.538;13.266;2022-09-14T13:48:42;7.35;;;2.08;;
17686;SDS011;8962;52.538;13.266;2022-09-14T13:51:11;5.72;;;2.13;;
17686;SDS011;8962;52.538;13.266;2022-09-14T13:53:43;6.57;;;2.00;;
17686;SDS011;8962;52.538;13.266;2022-09-14T13:59:18;9.90;;;2.35;;
17686;SDS011;8962;52.538;13.266;2022-09-14T14:01:51;8.63;;;2.30;;
17686;SDS011;8962;52.538;13.266;2022-09-14T14:04:22;7.50;;;2.25;;
17686;SDS011;8962;52.538;13.266;2022-09-14T14:06:57;6.13;;;2.17;;
17686;SDS011;8962;52.538;13.266;2022-09-14T14:09:38;7.28;;;2.60;;
17686;SDS011;8962;52.538;13.266;2022-09-14T14:12:08;5.15;;;2.17;;
17686;SDS011;8962;52.538;13.266;2022-09-14T14:14:37;9.13;;;2.47;;
17686;SDS011;8962;52.538;13.266;2022-09-14T14:17:09;5.38;;;2.17;;
17686;SDS011;8962;52.538;13.266;2022-09-14T14:19:49;7.60;;;1.90;;
17686;SDS011;8962;52.538;13.266;2022-09-14T14:22:18;5.43;;;2.13;;
17686;SDS011;8962;52.538;13.266;2022-09-14T14:24:48;9.77;;;2.40;;
17686;SDS011;8962;52.538;13.266;2022-09-14T14:27:27;7.15;;;2.13;;
17686;SDS011;8962;52.538;13.266;2022-09-14T14:29:57;5.72;;;2.05;;
17686;SDS011;8962;52.538;13.266;2022-09-14T14:32:25;5.63;;;2.42;;
17686;SDS011;8962;52.538;13.266;2022-09-14T14:34:53;11.70;;;2.15;;
17686;SDS011;8962;52.538;13.266;2022-09-14T14:37:21;6.65;;;2.25;;
17686;SDS011;8962;52.538;13.266;2022-09-14T14:39:49;8.77;;;2.00;;
17686;SDS011;8962;52.538;13.266;2022-09-14T14:42:16;6.63;;;1.80;;
17686;SDS011;8962;52.538;13.266;2022-09-14T14:44:45;5.18;;;1.90;;
17686;SDS011;8962;52.538;13.266;2022-09-14T14:47:13;8.25;;;2.08;;
17686;SDS011;8962;52.538;13.266;2022-09-14T14:49:41;8.30;;;2.20;;
17686;SDS011;8962;52.538;13.266;2022-09-14T14:52:10;8.00;;;1.95;;
17686;SDS011;8962;52.538;13.266;2022-09-14T14:54:40;4.80;;;2.00;;
17686;SDS011;8962;52.538;13.266;2022-09-14T14:57:12;6.00;;;2.13;;
17686;SDS011;8962;52.538;13.266;2022-09-14T14:59:40;9.00;;;2.67;;
17686;SDS011;8962;52.538;13.266;2022-09-14T15:02:07;6.43;;;2.10;;
17686;SDS011;8962;52.538;13.266;2022-09-14T15:04:34;7.78;;;1.92;;
17686;SDS011;8962;52.538;13.266;2022-09-14T15:07:01;6.32;;;2.15;;
17686;SDS011;8962;52.538;13.266;2022-09-14T15:09:29;4.50;;;1.80;;
17686;SDS011;8962;52.538;13.266;2022-09-14T15:11:56;5.80;;;2.00;;
17686;SDS011;8962;52.538;13.266;2022-09-14T15:14:25;4.88;;;1.70;;
17686;SDS011;8962;52.538;13.266;2022-09-14T15:16:52;4.90;;;1.80;;
17686;SDS011;8962;52.538;13.266;2022-09-14T15:19:23;6.00;;;2.00;;
17686;SDS011;8962;52.538;13.266;2022-09-14T15:21:51;5.20;;;1.77;;
17686;SDS011;8962;52.538;13.266;2022-09-14T15:24:18;7.03;;;1.92;;
17686;SDS011;8962;52.538;13.266;2022-09-14T15:26:46;5.65;;;1.90;;
17686;SDS011;8962;52.538;13.266;2022-09-14T15:29:14;5.55;;;2.08;;
17686;SDS011;8962;52.538;13.266;2022-09-14T15:31:45;5.65;;;2.42;;
17686;SDS011;8962;52.538;13.266;2022-09-14T15:34:13;9.15;;;2.60;;
17686;SDS011;8962;52.538;13.266;2022-09-14T15:36:40;7.28;;;2.00;;
17686;SDS011;8962;52.538;13.266;2022-09-14T15:39:12;11.77;;;2.63;;
17686;SDS011;8962;52.538;13.266;2022-09-14T15:41:40;5.35;;;2.38;;
17686;SDS011;8962;52.538;13.266;2022-09-14T15:44:11;4.75;;;2.38;;
17686;SDS011;8962;52.538;13.266;2022-09-14T15:46:40;6.20;;;2.20;;
17686;SDS011;8962;52.538;13.266;2022-09-14T15:49:11;6.57;;;2.10;;
17686;SDS011;8962;52.538;13.266;2022-09-14T15:51:42;7.60;;;2.33;;
17686;SDS011;8962;52.538;13.266;2022-09-14T15:54:10;7.60;;;2.35;;